EWG97UB EDDS-LROP
Flight info
| Callsign | EWG97UB |
|---|---|
| Flight time | 1h 55m |
| Altitude | 35000 |
| Route | ABTAL4B/25 ABTAL L173 RIXED Y161 RIDAR Z98 MIQ L605 BIBAG Q104 AKIMA DCT STEIN DCT LAMIT DCT TOSVI |
| Aircraft | A320/M-SDE3FGHIRWY/LB1 |
Departure
| Time | 2026-05-05 15:48 |
|---|---|
| Airport | Stuttgart Airport (EDDS) |
Arrival
| Time | 2026-05-05 17:44 |
|---|---|
| Airport | Bucharest Henri Coandă International Airport (LROP) |
| Time | Latitude | Longitude | Altitude | Speed | Heading |
|---|---|---|---|---|---|
| 2026-05-05 15:08 | 48.68897 | 9.19429 | 1286 ft | 0 kts | 343° |
| 2026-05-05 15:33 | 48.68881 | 9.19436 | 1285 ft | 4 kts | 347° |
| 2026-05-05 15:33 | 48.68855 | 9.19443 | 1288 ft | 4 kts | 357° |
| 2026-05-05 15:33 | 48.68830 | 9.19440 | 1288 ft | 4 kts | 22° |
| 2026-05-05 15:33 | 48.68814 | 9.19422 | 1290 ft | 2 kts | 73° |
| 2026-05-05 15:34 | 48.68813 | 9.19414 | 1289 ft | 0 kts | 73° |
| 2026-05-05 15:37 | 48.68814 | 9.19421 | 1289 ft | 2 kts | 73° |
| 2026-05-05 15:38 | 48.68823 | 9.19468 | 1287 ft | 7 kts | 73° |
| 2026-05-05 15:38 | 48.68840 | 9.19555 | 1286 ft | 9 kts | 74° |
| 2026-05-05 15:38 | 48.68859 | 9.19656 | 1285 ft | 11 kts | 74° |
| 2026-05-05 15:38 | 48.68881 | 9.19772 | 1285 ft | 12 kts | 74° |
| 2026-05-05 15:39 | 48.68882 | 9.19871 | 1285 ft | 6 kts | 146° |
| 2026-05-05 15:39 | 48.68843 | 9.19901 | 1287 ft | 8 kts | 154° |
| 2026-05-05 15:39 | 48.68828 | 9.19995 | 1285 ft | 11 kts | 60° |
| 2026-05-05 15:39 | 48.68854 | 9.20111 | 1285 ft | 13 kts | 74° |
| 2026-05-05 15:40 | 48.68881 | 9.20252 | 1287 ft | 16 kts | 74° |
| 2026-05-05 15:40 | 48.68918 | 9.20448 | 1285 ft | 17 kts | 74° |
| 2026-05-05 15:40 | 48.68945 | 9.20591 | 1285 ft | 15 kts | 74° |
| 2026-05-05 15:40 | 48.68975 | 9.20753 | 1285 ft | 17 kts | 74° |
| 2026-05-05 15:41 | 48.69008 | 9.20927 | 1288 ft | 18 kts | 74° |
| 2026-05-05 15:41 | 48.69043 | 9.21115 | 1285 ft | 19 kts | 74° |
| 2026-05-05 15:41 | 48.69082 | 9.21314 | 1287 ft | 20 kts | 73° |
| 2026-05-05 15:41 | 48.69121 | 9.21521 | 1287 ft | 21 kts | 74° |
| 2026-05-05 15:42 | 48.69162 | 9.21740 | 1285 ft | 22 kts | 74° |
| 2026-05-05 15:42 | 48.69206 | 9.21967 | 1285 ft | 23 kts | 74° |
| 2026-05-05 15:42 | 48.69250 | 9.22196 | 1287 ft | 23 kts | 73° |
| 2026-05-05 15:42 | 48.69295 | 9.22429 | 1287 ft | 23 kts | 73° |
| 2026-05-05 15:43 | 48.69338 | 9.22667 | 1287 ft | 24 kts | 74° |
| 2026-05-05 15:43 | 48.69373 | 9.22850 | 1285 ft | 15 kts | 74° |
| 2026-05-05 15:43 | 48.69403 | 9.23007 | 1285 ft | 16 kts | 74° |
| 2026-05-05 15:43 | 48.69436 | 9.23180 | 1285 ft | 19 kts | 74° |
| 2026-05-05 15:44 | 48.69474 | 9.23381 | 1285 ft | 20 kts | 73° |
| 2026-05-05 15:44 | 48.69514 | 9.23591 | 1289 ft | 21 kts | 75° |
| 2026-05-05 15:44 | 48.69554 | 9.23803 | 1287 ft | 21 kts | 73° |
| 2026-05-05 15:44 | 48.69591 | 9.23996 | 1285 ft | 18 kts | 73° |
| 2026-05-05 15:45 | 48.69614 | 9.24137 | 1285 ft | 9 kts | 92° |
| 2026-05-05 15:45 | 48.69586 | 9.24219 | 1286 ft | 9 kts | 120° |
| 2026-05-05 15:45 | 48.69564 | 9.24278 | 1285 ft | 4 kts | 122° |
| 2026-05-05 15:45 | 48.69552 | 9.24293 | 1286 ft | 0 kts | 146° |
| 2026-05-05 15:46 | 48.69513 | 9.24312 | 1286 ft | 11 kts | 165° |
| 2026-05-05 15:46 | 48.69449 | 9.24337 | 1288 ft | 9 kts | 165° |
| 2026-05-05 15:47 | 48.69398 | 9.24342 | 1285 ft | 6 kts | 208° |
| 2026-05-05 15:47 | 48.69389 | 9.24311 | 1285 ft | 0 kts | 254° |
| 2026-05-05 15:47 | 48.69380 | 9.24264 | 1288 ft | 22 kts | 255° |
| 2026-05-05 15:48 | 48.69262 | 9.23640 | 1289 ft | 97 kts | 254° |
| 2026-05-05 15:48 | 48.69018 | 9.22357 | 1287 ft | 154 kts | 254° |
| 2026-05-05 15:48 | 48.68722 | 9.20738 | 1775 ft | 155 kts | 257° |
| 2026-05-05 15:48 | 48.68432 | 9.19180 | 2455 ft | 152 kts | 253° |
| 2026-05-05 15:49 | 48.68120 | 9.17655 | 3017 ft | 153 kts | 252° |
| 2026-05-05 15:49 | 48.67792 | 9.16035 | 3262 ft | 171 kts | 251° |
| 2026-05-05 15:49 | 48.67396 | 9.14200 | 3428 ft | 194 kts | 252° |
| 2026-05-05 15:49 | 48.66982 | 9.12148 | 3749 ft | 213 kts | 252° |
| 2026-05-05 15:50 | 48.66348 | 9.10041 | 4226 ft | 226 kts | 227° |
| 2026-05-05 15:50 | 48.64997 | 9.08884 | 4889 ft | 235 kts | 191° |
| 2026-05-05 15:50 | 48.63367 | 9.09279 | 5635 ft | 247 kts | 155° |
| 2026-05-05 15:50 | 48.61998 | 9.10843 | 6435 ft | 255 kts | 137° |
| 2026-05-05 15:51 | 48.61132 | 9.13229 | 7163 ft | 269 kts | 106° |
| 2026-05-05 15:51 | 48.61113 | 9.16175 | 7611 ft | 292 kts | 84° |
| 2026-05-05 15:51 | 48.61412 | 9.19269 | 8236 ft | 302 kts | 84° |
| 2026-05-05 15:51 | 48.61708 | 9.22415 | 9021 ft | 303 kts | 85° |
| 2026-05-05 15:52 | 48.62013 | 9.25622 | 9816 ft | 308 kts | 79° |
| 2026-05-05 15:52 | 48.62679 | 9.28742 | 10401 ft | 319 kts | 69° |
| 2026-05-05 15:52 | 48.63536 | 9.31960 | 10591 ft | 342 kts | 69° |
| 2026-05-05 15:52 | 48.64474 | 9.35359 | 10736 ft | 365 kts | 68° |
| 2026-05-05 15:53 | 48.65494 | 9.38976 | 11082 ft | 380 kts | 68° |
| 2026-05-05 15:53 | 48.66550 | 9.42678 | 11702 ft | 385 kts | 67° |
| 2026-05-05 15:53 | 48.67621 | 9.46426 | 12376 ft | 388 kts | 67° |
| 2026-05-05 15:53 | 48.68694 | 9.50201 | 13070 ft | 391 kts | 67° |
| 2026-05-05 15:54 | 48.69767 | 9.54006 | 13747 ft | 394 kts | 68° |
| 2026-05-05 15:54 | 48.70830 | 9.57797 | 14332 ft | 397 kts | 68° |
| 2026-05-05 15:54 | 48.71910 | 9.61655 | 14923 ft | 400 kts | 68° |
| 2026-05-05 15:54 | 48.72995 | 9.65547 | 15517 ft | 402 kts | 68° |
| 2026-05-05 15:55 | 48.74085 | 9.69468 | 16116 ft | 404 kts | 68° |
| 2026-05-05 15:55 | 48.75183 | 9.73418 | 16694 ft | 407 kts | 68° |
| 2026-05-05 15:55 | 48.76288 | 9.77396 | 17263 ft | 410 kts | 68° |
| 2026-05-05 15:55 | 48.77400 | 9.81409 | 17823 ft | 414 kts | 68° |
| 2026-05-05 15:56 | 48.78518 | 9.85445 | 18363 ft | 417 kts | 69° |
| 2026-05-05 15:56 | 48.79643 | 9.89508 | 18868 ft | 419 kts | 69° |
| 2026-05-05 15:56 | 48.80773 | 9.93592 | 19383 ft | 421 kts | 69° |
| 2026-05-05 15:56 | 48.81905 | 9.97702 | 19884 ft | 423 kts | 69° |
| 2026-05-05 15:57 | 48.83037 | 10.01828 | 20388 ft | 425 kts | 69° |
| 2026-05-05 15:57 | 48.84128 | 10.06008 | 20868 ft | 426 kts | 74° |
| 2026-05-05 15:57 | 48.84819 | 10.10366 | 21334 ft | 424 kts | 84° |
| 2026-05-05 15:57 | 48.85026 | 10.14780 | 21750 ft | 424 kts | 93° |
| 2026-05-05 15:58 | 48.84777 | 10.19246 | 22196 ft | 424 kts | 99° |
| 2026-05-05 15:58 | 48.84412 | 10.23702 | 22655 ft | 425 kts | 99° |
| 2026-05-05 15:58 | 48.84049 | 10.28164 | 23106 ft | 427 kts | 99° |
| 2026-05-05 15:58 | 48.83694 | 10.32593 | 23509 ft | 429 kts | 99° |
| 2026-05-05 15:59 | 48.83153 | 10.37049 | 23854 ft | 427 kts | 108° |
| 2026-05-05 15:59 | 48.82124 | 10.41269 | 24191 ft | 426 kts | 118° |
| 2026-05-05 15:59 | 48.80636 | 10.45146 | 24517 ft | 425 kts | 128° |
| 2026-05-05 15:59 | 48.78744 | 10.48589 | 24827 ft | 424 kts | 135° |
| 2026-05-05 16:00 | 48.76702 | 10.51852 | 25135 ft | 426 kts | 135° |
| 2026-05-05 16:00 | 48.74664 | 10.55113 | 25458 ft | 427 kts | 136° |
| 2026-05-05 16:00 | 48.72617 | 10.58382 | 25786 ft | 428 kts | 136° |
| 2026-05-05 16:00 | 48.70563 | 10.61656 | 26105 ft | 429 kts | 136° |
| 2026-05-05 16:01 | 48.68527 | 10.64894 | 26404 ft | 430 kts | 136° |
| 2026-05-05 16:01 | 48.66460 | 10.68179 | 26690 ft | 432 kts | 136° |
| 2026-05-05 16:01 | 48.64389 | 10.71477 | 26967 ft | 433 kts | 136° |
| 2026-05-05 16:01 | 48.62359 | 10.74846 | 27236 ft | 436 kts | 131° |
| 2026-05-05 16:02 | 48.60662 | 10.78678 | 27495 ft | 441 kts | 121° |
| 2026-05-05 16:02 | 48.59432 | 10.82947 | 27740 ft | 446 kts | 111° |
| 2026-05-05 16:02 | 48.58722 | 10.87540 | 27977 ft | 453 kts | 101° |
| 2026-05-05 16:02 | 48.58513 | 10.92317 | 28168 ft | 457 kts | 96° |
| 2026-05-05 16:03 | 48.58391 | 10.97137 | 28389 ft | 459 kts | 96° |
| 2026-05-05 16:03 | 48.58265 | 11.01885 | 28679 ft | 458 kts | 96° |
| 2026-05-05 16:03 | 48.58131 | 11.06691 | 29009 ft | 456 kts | 96° |
| 2026-05-05 16:03 | 48.57993 | 11.11469 | 29341 ft | 455 kts | 97° |
| 2026-05-05 16:04 | 48.57860 | 11.16256 | 29674 ft | 454 kts | 96° |
| 2026-05-05 16:04 | 48.57755 | 11.21021 | 29980 ft | 453 kts | 96° |
| 2026-05-05 16:04 | 48.57670 | 11.25781 | 30237 ft | 453 kts | 96° |
| 2026-05-05 16:04 | 48.57594 | 11.30554 | 30480 ft | 454 kts | 96° |
| 2026-05-05 16:05 | 48.57518 | 11.35255 | 30660 ft | 455 kts | 96° |
| 2026-05-05 16:05 | 48.57435 | 11.40039 | 30827 ft | 457 kts | 96° |
| 2026-05-05 16:05 | 48.57344 | 11.44839 | 31044 ft | 457 kts | 96° |
| 2026-05-05 16:05 | 48.57244 | 11.49646 | 31297 ft | 458 kts | 96° |
| 2026-05-05 16:06 | 48.57139 | 11.54457 | 31557 ft | 458 kts | 96° |
| 2026-05-05 16:06 | 48.56971 | 11.59256 | 31799 ft | 456 kts | 101° |
| 2026-05-05 16:06 | 48.56418 | 11.63946 | 32035 ft | 452 kts | 107° |
| 2026-05-05 16:06 | 48.55737 | 11.68591 | 32267 ft | 453 kts | 107° |
| 2026-05-05 16:07 | 48.55066 | 11.73185 | 32499 ft | 453 kts | 107° |
| 2026-05-05 16:07 | 48.54387 | 11.77827 | 32684 ft | 454 kts | 107° |
| 2026-05-05 16:07 | 48.53699 | 11.82512 | 32825 ft | 457 kts | 107° |
| 2026-05-05 16:07 | 48.53010 | 11.87198 | 33011 ft | 458 kts | 107° |
| 2026-05-05 16:08 | 48.52319 | 11.91895 | 33238 ft | 459 kts | 107° |
| 2026-05-05 16:08 | 48.51627 | 11.96588 | 33475 ft | 459 kts | 107° |
| 2026-05-05 16:08 | 48.50933 | 12.01284 | 33729 ft | 459 kts | 107° |
| 2026-05-05 16:08 | 48.50232 | 12.05989 | 33939 ft | 459 kts | 107° |
| 2026-05-05 16:09 | 48.49528 | 12.10697 | 34129 ft | 460 kts | 107° |
| 2026-05-05 16:09 | 48.48824 | 12.15406 | 34324 ft | 460 kts | 107° |
| 2026-05-05 16:09 | 48.48115 | 12.20114 | 34466 ft | 460 kts | 106° |
| 2026-05-05 16:09 | 48.47402 | 12.24824 | 34639 ft | 461 kts | 106° |
| 2026-05-05 16:10 | 48.46696 | 12.29479 | 34746 ft | 463 kts | 106° |
| 2026-05-05 16:10 | 48.45256 | 12.38929 | 34752 ft | 465 kts | 106° |
| 2026-05-05 16:11 | 48.43809 | 12.48439 | 34752 ft | 465 kts | 106° |
| 2026-05-05 16:12 | 48.40890 | 12.67382 | 34750 ft | 465 kts | 107° |
| 2026-05-05 16:12 | 48.39822 | 12.76950 | 34752 ft | 470 kts | 94° |
| 2026-05-05 16:13 | 48.40225 | 12.91755 | 34749 ft | 471 kts | 90° |
| 2026-05-05 16:13 | 48.40511 | 13.01633 | 34738 ft | 471 kts | 90° |
| 2026-05-05 16:14 | 48.41056 | 13.21276 | 34747 ft | 471 kts | 90° |
| 2026-05-05 16:15 | 48.40773 | 13.31010 | 34747 ft | 465 kts | 104° |
| 2026-05-05 16:15 | 48.38761 | 13.40158 | 34743 ft | 459 kts | 116° |
| 2026-05-05 16:16 | 48.33768 | 13.57842 | 34725 ft | 460 kts | 116° |
| 2026-05-05 16:17 | 48.30427 | 13.69628 | 34726 ft | 460 kts | 116° |
| 2026-05-05 16:18 | 48.26660 | 13.82848 | 34732 ft | 461 kts | 116° |
| 2026-05-05 16:19 | 48.22850 | 13.96107 | 34729 ft | 461 kts | 116° |
| 2026-05-05 16:19 | 48.19046 | 14.09312 | 34712 ft | 461 kts | 116° |
| 2026-05-05 16:20 | 48.13917 | 14.26993 | 34708 ft | 462 kts | 116° |
| 2026-05-05 16:22 | 48.07469 | 14.49023 | 34715 ft | 463 kts | 116° |
| 2026-05-05 16:23 | 48.02273 | 14.66643 | 34713 ft | 463 kts | 116° |
| 2026-05-05 16:23 | 47.98356 | 14.79827 | 34730 ft | 464 kts | 116° |
| 2026-05-05 16:24 | 47.95756 | 14.88568 | 34730 ft | 464 kts | 117° |
| 2026-05-05 16:25 | 47.91822 | 15.01724 | 34740 ft | 464 kts | 117° |
| 2026-05-05 16:25 | 47.87860 | 15.14879 | 34755 ft | 464 kts | 117° |
| 2026-05-05 16:26 | 47.82538 | 15.32433 | 34769 ft | 464 kts | 117° |
| 2026-05-05 16:27 | 47.79887 | 15.41139 | 34770 ft | 464 kts | 117° |
| 2026-05-05 16:27 | 47.77216 | 15.49888 | 34776 ft | 464 kts | 118° |
| 2026-05-05 16:28 | 47.74533 | 15.58640 | 34798 ft | 464 kts | 116° |
| 2026-05-05 16:28 | 47.71846 | 15.67363 | 34796 ft | 464 kts | 117° |
| 2026-05-05 16:29 | 47.69177 | 15.76010 | 34791 ft | 464 kts | 116° |
| 2026-05-05 16:29 | 47.66477 | 15.84715 | 34794 ft | 465 kts | 117° |
| 2026-05-05 16:30 | 47.63767 | 15.93406 | 34801 ft | 464 kts | 118° |
| 2026-05-05 16:30 | 47.61056 | 16.02107 | 34816 ft | 465 kts | 116° |
| 2026-05-05 16:31 | 47.58351 | 16.10778 | 34824 ft | 465 kts | 118° |
| 2026-05-05 16:31 | 47.55625 | 16.19467 | 34816 ft | 465 kts | 118° |
| 2026-05-05 16:32 | 47.52882 | 16.28142 | 34829 ft | 465 kts | 118° |
| 2026-05-05 16:32 | 47.50127 | 16.36822 | 34827 ft | 466 kts | 117° |
| 2026-05-05 16:33 | 47.47390 | 16.45451 | 34842 ft | 466 kts | 118° |
| 2026-05-05 16:33 | 47.44625 | 16.54138 | 34855 ft | 466 kts | 117° |
| 2026-05-05 16:34 | 47.41865 | 16.62815 | 34861 ft | 467 kts | 117° |
| 2026-05-05 16:34 | 47.39218 | 16.71577 | 34865 ft | 467 kts | 116° |
| 2026-05-05 16:35 | 47.36614 | 16.80356 | 34861 ft | 467 kts | 117° |
| 2026-05-05 16:35 | 47.33976 | 16.89116 | 34873 ft | 467 kts | 116° |
| 2026-05-05 16:36 | 47.31319 | 16.97852 | 34881 ft | 467 kts | 117° |
| 2026-05-05 16:36 | 47.28647 | 17.06585 | 34887 ft | 467 kts | 117° |
| 2026-05-05 16:37 | 47.25982 | 17.15279 | 34895 ft | 467 kts | 116° |
| 2026-05-05 16:37 | 47.23311 | 17.23991 | 34894 ft | 467 kts | 116° |
| 2026-05-05 16:38 | 47.20632 | 17.32682 | 34895 ft | 467 kts | 117° |
| 2026-05-05 16:38 | 47.17937 | 17.41395 | 34898 ft | 467 kts | 117° |
| 2026-05-05 16:39 | 47.15251 | 17.50057 | 34908 ft | 467 kts | 116° |
| 2026-05-05 16:39 | 47.12529 | 17.58781 | 34899 ft | 467 kts | 117° |
| 2026-05-05 16:40 | 47.09833 | 17.67396 | 34916 ft | 467 kts | 117° |
| 2026-05-05 16:40 | 47.07107 | 17.76108 | 34916 ft | 468 kts | 116° |
| 2026-05-05 16:41 | 47.04385 | 17.84741 | 34922 ft | 468 kts | 117° |
| 2026-05-05 16:41 | 47.01642 | 17.93417 | 34914 ft | 468 kts | 116° |
| 2026-05-05 16:42 | 46.98903 | 18.02071 | 34921 ft | 468 kts | 116° |
| 2026-05-05 16:42 | 46.96162 | 18.10693 | 34927 ft | 468 kts | 116° |
| 2026-05-05 16:43 | 46.93408 | 18.19308 | 34929 ft | 468 kts | 116° |
| 2026-05-05 16:43 | 46.90655 | 18.27933 | 34925 ft | 468 kts | 116° |
| 2026-05-05 16:44 | 46.87891 | 18.36535 | 34922 ft | 468 kts | 116° |
| 2026-05-05 16:44 | 46.85107 | 18.45138 | 34923 ft | 469 kts | 116° |
| 2026-05-05 16:45 | 46.82332 | 18.53718 | 34919 ft | 469 kts | 116° |
| 2026-05-05 16:45 | 46.79552 | 18.62345 | 34918 ft | 469 kts | 116° |
| 2026-05-05 16:46 | 46.76754 | 18.70951 | 34923 ft | 469 kts | 116° |
| 2026-05-05 16:46 | 46.73936 | 18.79553 | 34926 ft | 469 kts | 116° |
| 2026-05-05 16:47 | 46.71117 | 18.88139 | 34924 ft | 469 kts | 116° |
| 2026-05-05 16:47 | 46.68320 | 18.96669 | 34924 ft | 469 kts | 116° |
| 2026-05-05 16:48 | 46.65501 | 19.05240 | 34924 ft | 469 kts | 116° |
| 2026-05-05 16:48 | 46.62666 | 19.13797 | 34924 ft | 470 kts | 116° |
| 2026-05-05 16:49 | 46.59818 | 19.22349 | 34925 ft | 470 kts | 117° |
| 2026-05-05 16:49 | 46.56985 | 19.30846 | 34918 ft | 470 kts | 117° |
| 2026-05-05 16:50 | 46.54131 | 19.39392 | 34917 ft | 470 kts | 116° |
| 2026-05-05 16:50 | 46.51268 | 19.47932 | 34923 ft | 470 kts | 117° |
| 2026-05-05 16:51 | 46.48399 | 19.56473 | 34922 ft | 471 kts | 117° |
| 2026-05-05 16:51 | 46.45520 | 19.64997 | 34923 ft | 471 kts | 117° |
| 2026-05-05 16:52 | 46.42630 | 19.73511 | 34934 ft | 470 kts | 117° |
| 2026-05-05 16:52 | 46.39741 | 19.82013 | 34936 ft | 470 kts | 117° |
| 2026-05-05 16:53 | 46.36849 | 19.90505 | 34936 ft | 470 kts | 117° |
| 2026-05-05 16:53 | 46.33970 | 19.98930 | 34935 ft | 470 kts | 117° |
| 2026-05-05 16:54 | 46.31068 | 20.07394 | 34934 ft | 469 kts | 117° |
| 2026-05-05 16:54 | 46.28166 | 20.15845 | 34931 ft | 469 kts | 117° |
| 2026-05-05 16:55 | 46.25251 | 20.24292 | 34927 ft | 469 kts | 117° |
| 2026-05-05 16:55 | 46.22332 | 20.32733 | 34928 ft | 469 kts | 117° |
| 2026-05-05 16:56 | 46.19408 | 20.41153 | 34933 ft | 468 kts | 117° |
| 2026-05-05 16:56 | 46.16480 | 20.49543 | 34939 ft | 468 kts | 117° |
| 2026-05-05 16:57 | 46.13546 | 20.57916 | 34936 ft | 467 kts | 117° |
| 2026-05-05 16:57 | 46.10616 | 20.66273 | 34927 ft | 468 kts | 117° |
| 2026-05-05 16:58 | 46.07675 | 20.74638 | 34925 ft | 468 kts | 117° |
| 2026-05-05 16:58 | 46.04727 | 20.82985 | 34929 ft | 467 kts | 117° |
| 2026-05-05 16:59 | 46.01780 | 20.91320 | 34930 ft | 467 kts | 117° |
| 2026-05-05 16:59 | 45.98836 | 20.99599 | 34930 ft | 467 kts | 117° |
| 2026-05-05 17:00 | 45.95869 | 21.07905 | 34934 ft | 467 kts | 117° |
| 2026-05-05 17:00 | 45.92906 | 21.16200 | 34940 ft | 467 kts | 117° |
| 2026-05-05 17:01 | 45.89941 | 21.24492 | 34941 ft | 466 kts | 117° |
| 2026-05-05 17:01 | 45.86969 | 21.32762 | 34943 ft | 466 kts | 117° |
| 2026-05-05 17:02 | 45.83987 | 21.41018 | 34947 ft | 465 kts | 117° |
| 2026-05-05 17:02 | 45.81002 | 21.49270 | 34951 ft | 465 kts | 117° |
| 2026-05-05 17:03 | 45.78020 | 21.57495 | 34943 ft | 465 kts | 117° |
| 2026-05-05 17:03 | 45.75047 | 21.65641 | 34936 ft | 464 kts | 117° |
| 2026-05-05 17:04 | 45.72055 | 21.73828 | 34954 ft | 464 kts | 117° |
| 2026-05-05 17:04 | 45.69067 | 21.82005 | 34957 ft | 463 kts | 117° |
| 2026-05-05 17:05 | 45.66072 | 21.90155 | 34947 ft | 463 kts | 117° |
| 2026-05-05 17:05 | 45.63570 | 21.96935 | 34948 ft | 463 kts | 117° |
| 2026-05-05 17:06 | 45.60567 | 22.05090 | 34944 ft | 464 kts | 117° |
| 2026-05-05 17:06 | 45.57062 | 22.14553 | 34954 ft | 464 kts | 117° |
| 2026-05-05 17:07 | 45.54522 | 22.21362 | 34966 ft | 464 kts | 117° |
| 2026-05-05 17:07 | 45.51491 | 22.29486 | 34965 ft | 464 kts | 117° |
| 2026-05-05 17:08 | 45.48460 | 22.37607 | 34980 ft | 464 kts | 117° |
| 2026-05-05 17:08 | 45.45421 | 22.45726 | 34973 ft | 465 kts | 117° |
| 2026-05-05 17:09 | 45.42389 | 22.53797 | 34980 ft | 465 kts | 117° |
| 2026-05-05 17:09 | 45.39322 | 22.61917 | 34986 ft | 466 kts | 117° |
| 2026-05-05 17:10 | 45.36254 | 22.70032 | 34990 ft | 466 kts | 116° |
| 2026-05-05 17:10 | 45.33175 | 22.78137 | 34985 ft | 467 kts | 117° |
| 2026-05-05 17:11 | 45.30067 | 22.86296 | 34987 ft | 467 kts | 117° |
| 2026-05-05 17:11 | 45.26989 | 22.94369 | 34987 ft | 467 kts | 117° |
| 2026-05-05 17:12 | 45.23873 | 23.02528 | 34998 ft | 468 kts | 116° |
| 2026-05-05 17:12 | 45.20778 | 23.10607 | 34982 ft | 468 kts | 116° |
| 2026-05-05 17:13 | 45.17645 | 23.18718 | 34974 ft | 469 kts | 117° |
| 2026-05-05 17:13 | 45.14502 | 23.26840 | 34978 ft | 469 kts | 117° |
| 2026-05-05 17:14 | 45.11371 | 23.34972 | 34983 ft | 469 kts | 114° |
| 2026-05-05 17:14 | 45.09233 | 23.43575 | 34985 ft | 465 kts | 102° |
| 2026-05-05 17:15 | 45.07581 | 23.52420 | 34988 ft | 465 kts | 102° |
| 2026-05-05 17:15 | 45.05910 | 23.61258 | 34988 ft | 466 kts | 102° |
| 2026-05-05 17:16 | 45.04223 | 23.70110 | 34991 ft | 466 kts | 102° |
| 2026-05-05 17:16 | 45.02547 | 23.78957 | 34990 ft | 466 kts | 102° |
| 2026-05-05 17:17 | 45.00856 | 23.87810 | 34990 ft | 466 kts | 103° |
| 2026-05-05 17:17 | 44.99743 | 23.92111 | 34989 ft | 469 kts | 116° |
| 2026-05-05 17:17 | 44.98069 | 23.96006 | 34997 ft | 470 kts | 121° |
| 2026-05-05 17:18 | 44.94485 | 24.03733 | 35004 ft | 470 kts | 121° |
| 2026-05-05 17:18 | 44.90884 | 24.11447 | 34999 ft | 470 kts | 121° |
| 2026-05-05 17:19 | 44.87286 | 24.19141 | 34186 ft | 470 kts | 121° |
| 2026-05-05 17:19 | 44.85475 | 24.22994 | 33273 ft | 473 kts | 121° |
| 2026-05-05 17:19 | 44.83651 | 24.26864 | 32398 ft | 474 kts | 121° |
| 2026-05-05 17:20 | 44.81817 | 24.30735 | 31499 ft | 475 kts | 121° |
| 2026-05-05 17:20 | 44.79974 | 24.34599 | 30611 ft | 476 kts | 121° |
| 2026-05-05 17:20 | 44.78118 | 24.38469 | 29637 ft | 477 kts | 121° |
| 2026-05-05 17:20 | 44.76253 | 24.42349 | 28545 ft | 478 kts | 121° |
| 2026-05-05 17:21 | 44.74391 | 24.46231 | 27440 ft | 480 kts | 121° |
| 2026-05-05 17:21 | 44.72539 | 24.50102 | 26842 ft | 471 kts | 121° |
| 2026-05-05 17:21 | 44.70741 | 24.53854 | 26702 ft | 453 kts | 121° |
| 2026-05-05 17:22 | 44.67311 | 24.60986 | 25856 ft | 436 kts | 121° |
| 2026-05-05 17:22 | 44.65624 | 24.64502 | 25321 ft | 432 kts | 121° |
| 2026-05-05 17:22 | 44.63959 | 24.67976 | 24768 ft | 428 kts | 121° |
| 2026-05-05 17:22 | 44.62297 | 24.71426 | 24222 ft | 424 kts | 121° |
| 2026-05-05 17:23 | 44.60649 | 24.74852 | 23705 ft | 421 kts | 121° |
| 2026-05-05 17:23 | 44.59020 | 24.78244 | 23140 ft | 417 kts | 121° |
| 2026-05-05 17:23 | 44.57408 | 24.81606 | 22586 ft | 413 kts | 121° |
| 2026-05-05 17:23 | 44.55813 | 24.84941 | 22073 ft | 409 kts | 122° |
| 2026-05-05 17:24 | 44.54241 | 24.88248 | 21598 ft | 405 kts | 121° |
| 2026-05-05 17:24 | 44.52690 | 24.91519 | 21105 ft | 401 kts | 121° |
| 2026-05-05 17:24 | 44.51154 | 24.94758 | 20633 ft | 398 kts | 121° |
| 2026-05-05 17:24 | 44.49629 | 24.97973 | 20152 ft | 394 kts | 121° |
| 2026-05-05 17:25 | 44.48129 | 25.01136 | 19767 ft | 389 kts | 121° |
| 2026-05-05 17:25 | 44.47152 | 25.03194 | 19682 ft | 380 kts | 121° |
| 2026-05-05 17:25 | 44.45228 | 25.07235 | 19417 ft | 366 kts | 121° |
| 2026-05-05 17:25 | 44.43890 | 25.10234 | 19048 ft | 360 kts | 113° |
| 2026-05-05 17:26 | 44.43162 | 25.13485 | 18672 ft | 352 kts | 95° |
| 2026-05-05 17:26 | 44.43178 | 25.16857 | 18308 ft | 344 kts | 80° |
| 2026-05-05 17:26 | 44.43501 | 25.20207 | 17845 ft | 342 kts | 80° |
| 2026-05-05 17:26 | 44.43823 | 25.23457 | 17438 ft | 340 kts | 79° |
| 2026-05-05 17:27 | 44.44150 | 25.26726 | 17007 ft | 339 kts | 79° |
| 2026-05-05 17:27 | 44.44490 | 25.30101 | 16565 ft | 367 kts | 79° |
| 2026-05-05 17:27 | 44.44854 | 25.33725 | 16079 ft | 382 kts | 80° |
| 2026-05-05 17:27 | 44.45220 | 25.37415 | 15575 ft | 383 kts | 80° |
| 2026-05-05 17:28 | 44.45580 | 25.41099 | 15069 ft | 381 kts | 80° |
| 2026-05-05 17:28 | 44.45934 | 25.44752 | 14544 ft | 378 kts | 80° |
| 2026-05-05 17:28 | 44.46283 | 25.48387 | 14021 ft | 375 kts | 80° |
| 2026-05-05 17:28 | 44.46632 | 25.51999 | 13425 ft | 372 kts | 80° |
| 2026-05-05 17:29 | 44.46977 | 25.55572 | 12871 ft | 369 kts | 79° |
| 2026-05-05 17:29 | 44.47320 | 25.59117 | 12295 ft | 366 kts | 79° |
| 2026-05-05 17:29 | 44.47660 | 25.62642 | 11720 ft | 363 kts | 79° |
| 2026-05-05 17:29 | 44.47996 | 25.66135 | 11129 ft | 361 kts | 79° |
| 2026-05-05 17:30 | 44.48324 | 25.69575 | 10835 ft | 350 kts | 79° |
| 2026-05-05 17:30 | 44.48634 | 25.72878 | 10710 ft | 334 kts | 79° |
| 2026-05-05 17:30 | 44.48918 | 25.76038 | 10586 ft | 320 kts | 79° |
| 2026-05-05 17:30 | 44.49164 | 25.79077 | 10465 ft | 308 kts | 80° |
| 2026-05-05 17:31 | 44.49388 | 25.81996 | 10349 ft | 296 kts | 80° |
| 2026-05-05 17:31 | 44.49600 | 25.84808 | 10135 ft | 289 kts | 80° |
| 2026-05-05 17:31 | 44.49807 | 25.87549 | 9926 ft | 285 kts | 80° |
| 2026-05-05 17:31 | 44.50016 | 25.90306 | 9809 ft | 285 kts | 80° |
| 2026-05-05 17:32 | 44.50226 | 25.93071 | 9613 ft | 286 kts | 80° |
| 2026-05-05 17:32 | 44.50440 | 25.95835 | 9185 ft | 285 kts | 80° |
| 2026-05-05 17:32 | 44.50654 | 25.98595 | 8738 ft | 285 kts | 81° |
| 2026-05-05 17:32 | 44.50867 | 26.01364 | 8289 ft | 285 kts | 81° |
| 2026-05-05 17:33 | 44.51076 | 26.04120 | 7910 ft | 283 kts | 81° |
| 2026-05-05 17:33 | 44.51282 | 26.06864 | 7543 ft | 280 kts | 81° |
| 2026-05-05 17:33 | 44.51487 | 26.09558 | 7186 ft | 277 kts | 81° |
| 2026-05-05 17:33 | 44.51692 | 26.12236 | 6771 ft | 276 kts | 81° |
| 2026-05-05 17:34 | 44.51895 | 26.14879 | 6375 ft | 275 kts | 81° |
| 2026-05-05 17:34 | 44.52096 | 26.17542 | 5937 ft | 274 kts | 82° |
| 2026-05-05 17:34 | 44.52296 | 26.20209 | 5503 ft | 273 kts | 82° |
| 2026-05-05 17:34 | 44.52485 | 26.22825 | 5182 ft | 268 kts | 82° |
| 2026-05-05 17:35 | 44.52671 | 26.25438 | 4812 ft | 269 kts | 83° |
| 2026-05-05 17:35 | 44.52854 | 26.27952 | 4671 ft | 257 kts | 83° |
| 2026-05-05 17:35 | 44.53035 | 26.30413 | 4386 ft | 251 kts | 83° |
| 2026-05-05 17:35 | 44.53220 | 26.32844 | 4061 ft | 249 kts | 83° |
| 2026-05-05 17:36 | 44.53411 | 26.35261 | 3893 ft | 249 kts | 82° |
| 2026-05-05 17:36 | 44.53605 | 26.37638 | 3688 ft | 241 kts | 83° |
| 2026-05-05 17:36 | 44.53801 | 26.39963 | 3383 ft | 239 kts | 83° |
| 2026-05-05 17:36 | 44.54003 | 26.42269 | 3089 ft | 236 kts | 83° |
| 2026-05-05 17:37 | 44.54215 | 26.44510 | 2901 ft | 228 kts | 79° |
| 2026-05-05 17:37 | 44.54562 | 26.45884 | 2722 ft | 225 kts | 57° |
| 2026-05-05 17:37 | 44.56220 | 26.47575 | 2509 ft | 243 kts | 11° |
| 2026-05-05 17:37 | 44.57834 | 26.47495 | 2504 ft | 228 kts | 338° |
| 2026-05-05 17:38 | 44.59087 | 26.46255 | 2504 ft | 220 kts | 302° |
| 2026-05-05 17:38 | 44.59464 | 26.44252 | 2514 ft | 215 kts | 259° |
| 2026-05-05 17:38 | 44.59058 | 26.42230 | 2512 ft | 217 kts | 256° |
| 2026-05-05 17:38 | 44.58851 | 26.40176 | 2507 ft | 205 kts | 264° |
| 2026-05-05 17:39 | 44.58726 | 26.38247 | 2512 ft | 198 kts | 263° |
| 2026-05-05 17:39 | 44.58592 | 26.36332 | 2509 ft | 196 kts | 263° |
| 2026-05-05 17:39 | 44.58455 | 26.34434 | 2509 ft | 195 kts | 263° |
| 2026-05-05 17:39 | 44.58317 | 26.32543 | 2511 ft | 194 kts | 263° |
| 2026-05-05 17:40 | 44.58183 | 26.30718 | 2531 ft | 179 kts | 263° |
| 2026-05-05 17:40 | 44.58061 | 26.29050 | 2392 ft | 169 kts | 263° |
| 2026-05-05 17:40 | 44.57943 | 26.27441 | 2217 ft | 162 kts | 262° |
| 2026-05-05 17:40 | 44.57829 | 26.25906 | 2034 ft | 153 kts | 262° |
| 2026-05-05 17:41 | 44.57721 | 26.24446 | 1855 ft | 148 kts | 262° |
| 2026-05-05 17:41 | 44.57617 | 26.23038 | 1707 ft | 144 kts | 261° |
| 2026-05-05 17:41 | 44.57514 | 26.21649 | 1519 ft | 143 kts | 262° |
| 2026-05-05 17:41 | 44.57412 | 26.20281 | 1353 ft | 142 kts | 262° |
| 2026-05-05 17:42 | 44.57306 | 26.18896 | 1178 ft | 143 kts | 262° |
| 2026-05-05 17:42 | 44.57204 | 26.17513 | 1000 ft | 142 kts | 262° |
| 2026-05-05 17:42 | 44.57097 | 26.16132 | 870 ft | 142 kts | 262° |
| 2026-05-05 17:42 | 44.57001 | 26.14761 | 739 ft | 145 kts | 262° |
| 2026-05-05 17:43 | 44.56900 | 26.13370 | 558 ft | 141 kts | 261° |
| 2026-05-05 17:43 | 44.56793 | 26.12013 | 390 ft | 137 kts | 262° |
| 2026-05-05 17:43 | 44.56699 | 26.10772 | 320 ft | 112 kts | 264° |
| 2026-05-05 17:43 | 44.56647 | 26.10090 | 318 ft | 51 kts | 264° |
| 2026-05-05 17:44 | 44.56611 | 26.09625 | 315 ft | 46 kts | 263° |
| 2026-05-05 17:44 | 44.56579 | 26.09194 | 312 ft | 43 kts | 265° |
| 2026-05-05 17:44 | 44.56552 | 26.08814 | 312 ft | 24 kts | 264° |
| 2026-05-05 17:44 | 44.56624 | 26.08614 | 313 ft | 23 kts | 325° |
| 2026-05-05 17:45 | 44.56706 | 26.08581 | 313 ft | 0 kts | 353° |
| 2026-05-05 17:46 | 44.56716 | 26.08579 | 313 ft | 4 kts | 353° |
| 2026-05-05 17:47 | 44.56755 | 26.08573 | 313 ft | 8 kts | 354° |
| 2026-05-05 17:47 | 44.56831 | 26.08562 | 313 ft | 11 kts | 354° |
| 2026-05-05 17:47 | 44.56893 | 26.08552 | 314 ft | 7 kts | 354° |
| 2026-05-05 17:47 | 44.56919 | 26.08579 | 314 ft | 4 kts | 75° |
| 2026-05-05 17:48 | 44.56925 | 26.08656 | 314 ft | 11 kts | 83° |
| 2026-05-05 17:48 | 44.56934 | 26.08779 | 315 ft | 14 kts | 84° |
| 2026-05-05 17:48 | 44.56942 | 26.08905 | 315 ft | 13 kts | 85° |
| 2026-05-05 17:48 | 44.56953 | 26.09027 | 315 ft | 13 kts | 83° |
| 2026-05-05 17:49 | 44.56963 | 26.09165 | 315 ft | 15 kts | 84° |
| 2026-05-05 17:49 | 44.56973 | 26.09296 | 315 ft | 8 kts | 83° |
| 2026-05-05 17:49 | 44.56972 | 26.09339 | 315 ft | 3 kts | 137° |
| 2026-05-05 17:49 | 44.56954 | 26.09352 | 315 ft | 3 kts | 162° |
| 2026-05-05 17:50 | 44.56928 | 26.09357 | 315 ft | 4 kts | 173° |
| 2026-05-05 17:50 | 44.56910 | 26.09360 | 314 ft | 2 kts | 174° |
| 2026-05-05 17:50 | 44.56904 | 26.09361 | 315 ft | 0 kts | 174° |